Nearby METAR Reports

Aktualna pogoda na lotniskach (dane METAR)

 

EPGD - Gdansk/Rebiechow, Poland
Distance from station: ENE 27mi, 44km
Updated: Tue, 25-Feb-2020 1:30pm PST
Clear
Clear
 Wind from WSW
Wind: WSW 15 mph , 24 km/h
Temperature: 39°F , 4°C
Wind Chill: 31°F , -1°C
Dew Point: 28°F , -2°C
Humidity: 65%
Barometer: 29.21 inHg , 989 hPa
Summary: Clear
Visibility: greater than 7 miles , 10 km
2020/02/25 21:30 EPGD 252130Z 24013KT CAVOK 04/M02 Q0989
EPSC - Szczecin/Golenio, Poland
Distance from station: WSW 128mi, 205km
Updated: Tue, 25-Feb-2020 1:30pm PST
Clear
Clear
 Wind from SW
Wind: SW 10 mph , 17 km/h
Temperature: 41°F , 5°C
Wind Chill: 35°F , 2°C
Dew Point: 30°F , -1°C
Humidity: 66%
Barometer: 29.26 inHg , 991 hPa
Summary: Clear
Visibility: greater than 7 miles , 10 km
2020/02/25 21:30 EPSC 252130Z 23009KT 200V270 CAVOK 05/M01 Q0991
 
EPPO - Poznan/Lawica, Poland
Distance from station: SSW 131mi, 210km
Updated: Tue, 25-Feb-2020 1:30pm PST
Clear
Clear
 Wind from SW
Wind: SW 9 mph , 15 km/h
Temperature: 39°F , 4°C
Wind Chill: 33°F , 1°C
Dew Point: 36°F , 2°C
Humidity: 87%
Barometer: 29.35 inHg , 994 hPa
Summary: Clear
Visibility: greater than 7 miles , 10 km
2020/02/25 21:30 EPPO 252130Z 23008KT CAVOK 04/02 Q0994
EPLL - Lodz/Lublinek, Poland
Distance from station: SSE 184mi, 296km
Updated: Tue, 25-Feb-2020 1:30pm PST
Partly Cloudy
Partly Cloudy
 Wind from SW
Wind: SW 5 mph , 7 km/h
Temperature: 39°F , 4°C
Wind Chill: 35°F , 2°C
Dew Point: 39°F , 4°C
Humidity: 100%
Barometer: 29.38 inHg , 995 hPa
Clouds: Partly Cloudy
Visibility: 6 miles , 10 km
Cloud details: Partly Cloudy 4900 ft
2020/02/25 21:30 EPLL 252130Z 22004KT 9999 SCT049 04/04 Q0995
 
EPWA - Warsaw/Okecie, Poland
Distance from station: SE 191mi, 307km
Updated: Tue, 25-Feb-2020 1:30pm PST
Clear
Clear
 Wind from WSW
Wind: WSW 5 mph , 7 km/h
Temperature: 45°F , 7°C
Wind Chill: 42°F , 6°C
Dew Point: 43°F , 6°C
Humidity: 93%
Barometer: 29.35 inHg , 994 hPa
Summary: Clear
Visibility: greater than 7 miles , 10 km
2020/02/25 21:30 EPWA 252130Z 24004KT 200V270 CAVOK 07/06 Q0994 NOSIG
EPWR - Wroclaw/Strachow, Poland
Distance from station: S 219mi, 352km
Updated: Tue, 25-Feb-2020 1:30pm PST
Clear
Clear
 Wind from SW
Wind: SW 8 mph , 13 km/h
Temperature: 43°F , 6°C
Wind Chill: 38°F , 3°C
Dew Point: 39°F , 4°C
Humidity: 87%
Barometer: 29.44 inHg , 997 hPa
Summary: Clear
Visibility: greater than 7 miles , 10 km
2020/02/25 21:30 EPWR 252130Z 22007KT CAVOK 06/04 Q0997

Metar display script from Saratoga-Weather.org